createdAt,value
2019-04-30T00:00:38.554Z,0.00
2019-04-30T00:01:38.556Z,0.00
2019-04-30T00:02:40.065Z,0.00
2019-04-30T00:03:38.473Z,0.00
2019-04-30T00:04:47.070Z,0.00
2019-04-30T00:06:47.043Z,0.00
2019-04-30T00:07:39.802Z,0.00
2019-04-30T00:09:49.238Z,0.00
2019-04-30T00:10:41.514Z,0.00
2019-04-30T00:11:41.117Z,0.00
2019-04-30T00:12:41.090Z,0.00
2019-04-30T00:13:41.062Z,0.00
2019-04-30T00:14:41.369Z,0.00
2019-04-30T00:15:41.023Z,0.00
2019-04-30T00:16:40.993Z,0.00
2019-04-30T00:17:40.967Z,0.00
2019-04-30T00:18:55.164Z,0.00
2019-04-30T00:19:40.920Z,0.00
2019-04-30T00:20:40.899Z,0.00
2019-04-30T00:21:40.872Z,0.00
2019-04-30T00:22:47.149Z,0.00
2019-04-30T00:23:40.825Z,0.00
2019-04-30T00:24:46.815Z,0.00
2019-04-30T00:25:40.777Z,0.00
2019-04-30T00:26:46.749Z,0.00
2019-04-30T00:27:40.730Z,0.00
2019-04-30T00:28:44.374Z,0.00
2019-04-30T00:29:40.680Z,0.00
2019-04-30T00:30:43.877Z,0.00
2019-04-30T00:31:40.631Z,0.00
2019-04-30T00:32:43.826Z,0.00
2019-04-30T00:33:40.583Z,0.00
2019-04-30T00:34:40.574Z,0.00
2019-04-30T00:35:40.534Z,0.00
2019-04-30T00:36:40.511Z,0.00
2019-04-30T00:37:40.486Z,0.00
2019-04-30T00:38:40.464Z,0.00
2019-04-30T00:39:44.436Z,0.00
2019-04-30T00:40:40.414Z,0.00
2019-04-30T00:41:45.972Z,0.00
2019-04-30T00:42:40.370Z,0.00
2019-04-30T00:43:46.465Z,0.00
2019-04-30T00:44:40.317Z,0.00
2019-04-30T00:45:44.913Z,0.00
2019-04-30T00:46:40.288Z,0.00
2019-04-30T00:47:44.438Z,0.00
2019-04-30T00:48:40.223Z,0.00
2019-04-30T00:49:40.192Z,0.00
2019-04-30T00:50:40.173Z,0.00
2019-04-30T00:51:40.148Z,0.00
2019-04-30T00:52:40.126Z,0.00
2019-04-30T00:53:43.796Z,0.00
2019-04-30T00:54:40.078Z,0.00
2019-04-30T00:55:44.249Z,0.00
2019-04-30T00:56:40.034Z,0.00
2019-04-30T00:57:43.547Z,0.00
2019-04-30T00:58:39.981Z,0.00
2019-04-30T00:59:44.002Z,0.00
2019-04-30T01:00:39.937Z,0.00
2019-04-30T01:01:43.519Z,0.00
2019-04-30T01:02:39.884Z,0.00
2019-04-30T01:03:46.369Z,0.00
2019-04-30T01:04:39.843Z,0.00
2019-04-30T01:05:43.868Z,0.00
2019-04-30T01:06:39.790Z,0.00
2019-04-30T01:07:47.969Z,0.00
2019-04-30T01:08:39.749Z,0.00
2019-04-30T01:09:43.581Z,0.00
2019-04-30T01:10:39.697Z,0.00
2019-04-30T01:11:44.007Z,0.00
2019-04-30T01:12:44.922Z,0.00
2019-04-30T01:13:45.553Z,0.00
2019-04-30T01:14:39.594Z,0.00
2019-04-30T01:15:39.578Z,0.00
2019-04-30T01:16:39.544Z,0.00
2019-04-30T01:17:40.884Z,0.00
2019-04-30T01:18:39.505Z,0.00
2019-04-30T01:19:39.654Z,0.00
2019-04-30T01:20:40.719Z,0.00
2019-04-30T01:21:40.229Z,0.00
2019-04-30T01:22:39.409Z,0.00
2019-04-30T01:23:43.186Z,0.00
2019-04-30T01:24:39.363Z,0.00
2019-04-30T01:25:43.210Z,0.00
2019-04-30T01:26:39.401Z,0.00
2019-04-30T01:27:45.468Z,0.00
2019-04-30T01:28:39.271Z,0.00
2019-04-30T01:29:44.165Z,0.00
2019-04-30T01:30:39.439Z,0.00
2019-04-30T01:31:40.835Z,0.00
2019-04-30T01:32:39.505Z,0.00
2019-04-30T01:33:39.172Z,0.00
2019-04-30T01:34:39.556Z,0.00
2019-04-30T01:35:40.590Z,0.00
2019-04-30T01:36:39.320Z,0.00
2019-04-30T01:37:39.050Z,0.00
2019-04-30T01:38:40.360Z,0.00
2019-04-30T01:39:39.181Z,0.00
2019-04-30T01:40:42.802Z,0.00
2019-04-30T01:41:40.237Z,0.00
2019-04-30T01:42:41.122Z,0.00
2019-04-30T01:43:38.910Z,0.00
2019-04-30T01:44:39.232Z,0.00
2019-04-30T01:45:38.857Z,0.00
2019-04-30T01:46:39.118Z,0.00
2019-04-30T01:47:39.703Z,0.00
2019-04-30T01:48:39.323Z,0.00
2019-04-30T01:49:42.653Z,0.00
2019-04-30T01:50:42.058Z,0.00
2019-04-30T01:51:38.788Z,0.00
2019-04-30T01:52:38.835Z,0.00
2019-04-30T01:53:38.872Z,0.00
2019-04-30T01:54:39.150Z,0.00
2019-04-30T01:55:38.973Z,0.00
2019-04-30T01:56:38.996Z,0.00
2019-04-30T01:57:39.035Z,0.00
2019-04-30T01:58:39.358Z,0.00
2019-04-30T01:59:38.830Z,0.00
2019-04-30T02:00:39.153Z,0.00
2019-04-30T02:01:39.047Z,0.00
2019-04-30T02:02:39.431Z,0.00
2019-04-30T02:03:40.038Z,0.00
2019-04-30T02:04:39.327Z,0.00
2019-04-30T02:05:38.621Z,0.00
2019-04-30T02:06:39.156Z,0.00
2019-04-30T02:07:38.845Z,0.00
2019-04-30T02:08:39.312Z,0.00
2019-04-30T02:09:38.860Z,0.00
2019-04-30T02:10:38.262Z,0.00
2019-04-30T02:11:38.865Z,0.00
2019-04-30T02:12:39.277Z,0.00
2019-04-30T02:13:39.220Z,0.00
2019-04-30T02:14:39.484Z,0.00
2019-04-30T02:15:39.036Z,0.00
2019-04-30T02:16:39.585Z,0.00
2019-04-30T02:17:38.870Z,0.00
2019-04-30T02:18:39.411Z,0.00
2019-04-30T02:19:39.085Z,0.00
2019-04-30T02:20:38.451Z,0.00
2019-04-30T02:21:38.575Z,0.00
2019-04-30T02:22:38.959Z,0.00
2019-04-30T02:23:39.245Z,0.00
2019-04-30T02:24:38.674Z,0.00
2019-04-30T02:25:39.805Z,0.00
2019-04-30T02:26:38.477Z,0.00
2019-04-30T02:27:39.061Z,0.00
2019-04-30T02:28:39.372Z,0.00
2019-04-30T02:29:39.685Z,0.00
2019-04-30T02:30:40.326Z,0.00
2019-04-30T02:31:40.595Z,0.00
2019-04-30T02:32:39.496Z,0.00
2019-04-30T02:33:40.383Z,0.00
2019-04-30T02:34:41.133Z,0.00
2019-04-30T02:35:40.486Z,0.00
2019-04-30T02:36:40.368Z,0.00
2019-04-30T02:37:40.382Z,0.00
2019-04-30T02:38:39.643Z,0.00
2019-04-30T02:39:40.128Z,0.00
2019-04-30T02:40:39.329Z,0.00
2019-04-30T02:41:40.847Z,0.00
2019-04-30T02:42:39.746Z,0.00
2019-04-30T02:43:39.744Z,0.00
2019-04-30T02:44:37.421Z,0.00
2019-04-30T02:45:39.951Z,0.00
2019-04-30T02:46:40.196Z,0.00
2019-04-30T02:47:39.810Z,0.00
2019-04-30T02:48:39.724Z,0.00
2019-04-30T02:49:39.746Z,0.00
2019-04-30T02:50:39.312Z,0.00
2019-04-30T02:51:39.779Z,0.00
2019-04-30T02:52:37.226Z,0.00
2019-04-30T02:53:37.193Z,0.00
2019-04-30T02:54:39.463Z,0.00
2019-04-30T02:55:37.162Z,0.00
2019-04-30T02:56:39.808Z,0.00
2019-04-30T02:57:39.482Z,0.00
2019-04-30T02:58:37.082Z,0.00
2019-04-30T02:59:40.136Z,0.00
2019-04-30T03:00:39.347Z,0.00
2019-04-30T03:01:37.011Z,0.00
2019-04-30T03:02:39.175Z,0.00
2019-04-30T03:03:39.688Z,0.00
2019-04-30T03:04:39.388Z,0.00
2019-04-30T03:05:39.119Z,0.00
2019-04-30T03:06:36.882Z,0.00
2019-04-30T03:07:36.855Z,0.00
2019-04-30T03:08:36.827Z,0.00
2019-04-30T03:09:39.327Z,0.00
2019-04-30T03:10:36.775Z,0.00
2019-04-30T03:11:36.759Z,0.00
2019-04-30T03:12:36.728Z,0.00
2019-04-30T03:13:40.057Z,0.00
2019-04-30T03:14:36.679Z,0.00
2019-04-30T03:15:39.236Z,0.00
2019-04-30T03:16:36.620Z,0.00
2019-04-30T03:17:39.336Z,0.00
2019-04-30T03:18:36.576Z,0.00
2019-04-30T03:19:36.557Z,0.00
2019-04-30T03:20:36.847Z,0.00
2019-04-30T03:21:36.501Z,4.00
2019-04-30T03:22:36.475Z,4.00
2019-04-30T03:23:38.979Z,4.00
2019-04-30T03:24:36.420Z,4.00
2019-04-30T03:25:36.405Z,4.00
2019-04-30T03:26:36.376Z,8.00
2019-04-30T03:27:36.349Z,4.00
2019-04-30T03:28:36.325Z,4.00
2019-04-30T03:29:36.294Z,8.00
2019-04-30T03:30:36.324Z,8.00
2019-04-30T03:31:36.260Z,12.00
2019-04-30T03:32:36.773Z,16.00
2019-04-30T03:33:36.213Z,16.00
2019-04-30T03:34:36.186Z,16.00
2019-04-30T03:35:36.148Z,20.00
2019-04-30T03:36:36.118Z,28.00
2019-04-30T03:37:36.097Z,28.00
2019-04-30T03:38:36.076Z,36.00
2019-04-30T03:39:36.048Z,40.00
2019-04-30T03:40:36.020Z,48.00
2019-04-30T03:41:35.994Z,56.00
2019-04-30T03:42:35.964Z,64.00
2019-04-30T03:43:35.959Z,76.00
2019-04-30T03:44:35.918Z,88.00
2019-04-30T03:45:35.891Z,100.00
2019-04-30T03:46:35.879Z,116.00
2019-04-30T03:47:43.360Z,128.00
2019-04-30T03:49:30.966Z,164.00
2019-04-30T03:50:48.122Z,188.00
2019-04-30T03:52:24.766Z,232.00
2019-04-30T03:53:31.906Z,260.00
2019-04-30T03:55:25.128Z,316.00
2019-04-30T03:56:24.762Z,348.00
2019-04-30T03:58:21.187Z,416.00
2019-04-30T03:59:10.985Z,460.00
2019-04-30T04:01:03.320Z,544.00
2019-04-30T04:02:03.295Z,588.00
2019-04-30T04:03:56.179Z,680.00
2019-04-30T04:04:56.121Z,736.00
2019-04-30T04:06:50.031Z,840.00
2019-04-30T04:07:53.106Z,900.00
2019-04-30T04:09:51.573Z,1012.00
2019-04-30T04:10:44.348Z,1072.00
2019-04-30T04:12:39.384Z,1196.00
2019-04-30T04:13:39.906Z,1264.00
2019-04-30T04:15:30.074Z,1408.00
2019-04-30T04:16:32.265Z,1484.00
2019-04-30T04:18:25.450Z,1636.00
2019-04-30T04:19:25.389Z,1716.00
2019-04-30T04:20:25.377Z,1812.00
2019-04-30T04:21:25.858Z,1896.00
2019-04-30T04:22:25.335Z,1988.00
2019-04-30T04:23:25.312Z,2076.00
2019-04-30T04:24:25.290Z,2168.00
2019-04-30T04:25:25.281Z,2260.00
2019-04-30T04:26:25.230Z,2388.00
2019-04-30T04:27:25.269Z,2500.00
2019-04-30T04:28:25.205Z,2592.00
2019-04-30T04:29:25.162Z,2696.00
2019-04-30T04:30:25.140Z,2808.00
2019-04-30T04:31:33.736Z,2900.00
2019-04-30T04:33:19.942Z,3096.00
2019-04-30T04:34:19.777Z,3196.00
2019-04-30T04:36:10.818Z,3376.00
2019-04-30T04:37:10.785Z,3468.00
2019-04-30T04:39:03.683Z,3692.00
2019-04-30T04:40:03.623Z,3788.00
2019-04-30T04:42:00.044Z,3996.00
2019-04-30T04:43:00.066Z,4100.00
2019-04-30T04:44:51.441Z,4292.00
2019-04-30T04:45:51.390Z,4428.00
2019-04-30T04:47:44.304Z,4560.00
2019-04-30T04:48:44.241Z,4644.00
2019-04-30T04:50:39.798Z,4820.00
2019-04-30T04:51:41.116Z,4888.00
2019-04-30T04:53:33.000Z,5064.00
2019-04-30T04:54:32.984Z,5152.00
2019-04-30T04:55:32.944Z,5240.00
2019-04-30T04:56:32.926Z,5336.00
2019-04-30T04:57:32.897Z,5432.00
2019-04-30T04:58:32.909Z,5544.00
2019-04-30T04:59:32.833Z,5664.00
2019-04-30T05:00:32.824Z,6472.00
2019-04-30T05:01:32.822Z,8060.00
2019-04-30T05:02:33.001Z,8164.00
2019-04-30T05:03:32.754Z,7784.00
2019-04-30T05:04:32.729Z,8232.00
2019-04-30T05:05:32.684Z,8492.00
2019-04-30T05:06:32.679Z,8712.00
2019-04-30T05:07:32.671Z,8728.00
2019-04-30T05:08:32.664Z,9080.00
2019-04-30T05:09:32.667Z,9960.00
2019-04-30T05:10:32.580Z,10156.00
2019-04-30T05:11:32.580Z,10136.00
2019-04-30T05:12:32.519Z,9836.00
2019-04-30T05:13:34.648Z,9688.00
2019-04-30T05:14:32.497Z,9516.00
2019-04-30T05:15:32.445Z,10056.00
2019-04-30T05:16:32.409Z,11328.00
2019-04-30T05:17:32.406Z,11480.00
2019-04-30T05:18:32.414Z,10792.00
2019-04-30T05:19:32.364Z,10988.00
2019-04-30T05:20:32.354Z,12356.00
2019-04-30T05:21:42.053Z,13164.00
2019-04-30T05:22:32.280Z,12476.00
2019-04-30T05:23:32.276Z,13416.00
2019-04-30T05:24:32.229Z,17600.00
2019-04-30T05:25:32.206Z,20928.00
2019-04-30T05:26:32.178Z,21248.00
2019-04-30T05:27:32.199Z,20288.00
2019-04-30T05:28:32.155Z,20832.00
2019-04-30T05:29:32.154Z,20000.00
2019-04-30T05:30:32.097Z,18496.00
2019-04-30T05:31:32.075Z,18688.00
2019-04-30T05:32:32.075Z,18144.00
2019-04-30T05:33:32.016Z,20544.00
2019-04-30T05:34:32.005Z,22752.00
2019-04-30T05:35:31.983Z,24320.00
2019-04-30T05:36:31.960Z,20704.00
2019-04-30T05:37:31.940Z,19232.00
2019-04-30T05:38:31.943Z,20960.00
2019-04-30T05:39:31.898Z,19552.00
2019-04-30T05:40:31.880Z,20960.00
2019-04-30T05:41:31.867Z,25344.00
2019-04-30T05:42:31.839Z,28448.00
2019-04-30T05:43:31.807Z,31072.00
2019-04-30T05:44:31.813Z,29344.00
2019-04-30T05:45:33.703Z,23072.00
2019-04-30T05:46:31.797Z,18592.00
2019-04-30T05:47:31.731Z,19200.00
2019-04-30T05:48:31.723Z,19168.00
2019-04-30T05:49:31.713Z,15648.00
2019-04-30T05:50:31.670Z,14692.00
2019-04-30T05:51:31.646Z,14284.00
2019-04-30T05:52:31.645Z,14116.00
2019-04-30T05:53:31.612Z,14064.00
2019-04-30T05:54:31.597Z,14124.00
2019-04-30T05:55:31.569Z,14136.00
2019-04-30T05:56:31.552Z,14116.00
2019-04-30T05:57:31.542Z,14196.00
2019-04-30T05:58:31.575Z,14280.00
2019-04-30T05:59:31.491Z,14296.00
2019-04-30T06:00:31.520Z,14216.00
2019-04-30T06:01:31.451Z,14168.00
2019-04-30T06:02:34.081Z,14332.00
2019-04-30T06:03:33.345Z,14788.00
2019-04-30T06:04:31.388Z,15056.00
2019-04-30T06:05:31.391Z,15120.00
2019-04-30T06:06:33.564Z,15008.00
2019-04-30T06:07:31.351Z,14880.00
2019-04-30T06:08:31.337Z,14720.00
2019-04-30T06:09:33.957Z,14692.00
2019-04-30T06:10:31.300Z,14840.00
2019-04-30T06:11:31.260Z,14936.00
2019-04-30T06:12:31.260Z,15108.00
2019-04-30T06:13:32.040Z,15232.00
2019-04-30T06:14:31.221Z,15412.00
2019-04-30T06:15:31.218Z,15360.00
2019-04-30T06:16:31.188Z,15512.00
2019-04-30T06:17:31.163Z,15508.00
2019-04-30T06:18:31.161Z,15504.00
2019-04-30T06:19:31.120Z,15696.00
2019-04-30T06:20:31.108Z,15912.00
2019-04-30T06:21:31.084Z,16144.00
2019-04-30T06:22:31.131Z,16304.00
2019-04-30T06:23:31.049Z,16624.00
2019-04-30T06:24:31.048Z,16864.00
2019-04-30T06:25:41.302Z,17152.00
2019-04-30T06:26:31.020Z,17312.00
2019-04-30T06:27:30.994Z,17376.00
2019-04-30T06:28:30.972Z,17568.00
2019-04-30T06:29:30.976Z,17760.00
2019-04-30T06:30:30.968Z,17856.00
2019-04-30T06:31:34.263Z,17920.00
2019-04-30T06:32:30.930Z,18240.00
2019-04-30T06:33:30.904Z,18368.00
2019-04-30T06:34:30.928Z,18496.00
2019-04-30T06:35:30.889Z,18624.00
2019-04-30T06:36:30.860Z,18720.00
2019-04-30T06:37:31.599Z,19264.00
2019-04-30T06:38:30.815Z,19520.00
2019-04-30T06:39:30.835Z,19264.00
2019-04-30T06:40:30.813Z,19168.00
2019-04-30T06:41:30.846Z,19296.00
2019-04-30T06:42:30.787Z,19488.00
2019-04-30T06:43:30.754Z,19776.00
2019-04-30T06:44:37.356Z,20096.00
2019-04-30T06:45:30.758Z,20320.00
2019-04-30T06:46:30.719Z,20896.00
2019-04-30T06:47:33.161Z,21760.00
2019-04-30T06:48:30.690Z,26240.00
2019-04-30T06:49:30.687Z,33504.00
2019-04-30T06:50:30.667Z,42464.00
2019-04-30T06:51:30.877Z,52672.00
2019-04-30T06:52:30.633Z,57504.00
2019-04-30T06:53:30.590Z,58912.00
2019-04-30T06:54:30.618Z,63712.00
2019-04-30T06:55:30.998Z,68032.00
2019-04-30T06:56:30.573Z,65312.00
2019-04-30T06:57:30.600Z,60928.00
2019-04-30T06:58:30.593Z,63936.00
2019-04-30T06:59:30.533Z,68192.00
2019-04-30T07:00:33.619Z,68992.00
2019-04-30T07:01:30.490Z,66432.00
2019-04-30T07:02:30.895Z,67552.00
2019-04-30T07:03:30.463Z,69248.00
2019-04-30T07:04:30.508Z,65120.00
2019-04-30T07:05:30.449Z,61792.00
2019-04-30T07:06:32.653Z,65344.00
2019-04-30T07:07:38.466Z,70528.00
2019-04-30T07:08:38.858Z,71936.00
2019-04-30T07:09:33.555Z,71744.00
2019-04-30T07:10:30.399Z,70176.00
2019-04-30T07:11:30.360Z,69408.00
2019-04-30T07:12:30.925Z,73248.00
2019-04-30T07:13:30.329Z,77984.00
2019-04-30T07:14:30.327Z,76928.00
2019-04-30T07:15:30.306Z,73568.00
2019-04-30T07:16:30.302Z,73504.00
2019-04-30T07:17:30.277Z,74816.00
2019-04-30T07:18:30.285Z,75008.00
2019-04-30T07:19:38.261Z,72928.00
2019-04-30T07:20:33.937Z,73024.00
2019-04-30T07:21:31.714Z,77952.00
2019-04-30T07:22:40.086Z,81536.00
2019-04-30T07:23:30.204Z,76288.00
2019-04-30T07:24:30.179Z,71808.00
2019-04-30T07:25:30.206Z,73376.00
2019-04-30T07:26:30.183Z,77216.00
2019-04-30T07:27:32.360Z,78976.00
2019-04-30T07:28:43.256Z,82048.00
2019-04-30T07:29:30.124Z,84096.00
2019-04-30T07:30:30.905Z,82336.00
2019-04-30T07:31:30.129Z,75936.00
2019-04-30T07:32:30.087Z,72992.00
2019-04-30T07:33:30.068Z,74816.00
2019-04-30T07:34:36.557Z,79232.00
2019-04-30T07:35:30.054Z,82208.00
2019-04-30T07:36:46.880Z,82080.00
2019-04-30T07:38:35.618Z,74752.00
2019-04-30T07:39:33.351Z,72960.00
2019-04-30T07:41:16.296Z,79232.00
2019-04-30T07:42:23.445Z,79776.00
2019-04-30T07:44:30.007Z,73120.00
2019-04-30T07:45:16.315Z,72864.00
2019-04-30T07:47:09.735Z,78848.00
2019-04-30T07:48:09.458Z,81440.00
2019-04-30T07:49:55.960Z,84768.00
2019-04-30T07:50:54.904Z,91200.00
2019-04-30T07:53:01.797Z,96448.00
2019-04-30T07:53:49.638Z,91296.00
2019-04-30T07:55:40.687Z,80128.00
2019-04-30T07:56:41.714Z,85984.00
2019-04-30T07:57:40.710Z,94912.00
2019-04-30T07:58:40.626Z,102912.00
2019-04-30T07:59:40.614Z,104608.00
2019-04-30T08:00:40.599Z,99840.00
2019-04-30T08:02:00.614Z,85056.00
2019-04-30T08:02:43.561Z,76672.00
2019-04-30T08:03:40.938Z,83232.00
2019-04-30T08:04:40.876Z,95392.00
2019-04-30T08:05:40.551Z,107616.00
2019-04-30T08:06:40.726Z,111584.00
2019-04-30T08:07:40.558Z,105440.00
2019-04-30T08:08:41.125Z,93952.00
2019-04-30T08:09:42.335Z,86464.00
2019-04-30T08:10:40.488Z,82240.00
2019-04-30T08:11:43.423Z,87264.00
2019-04-30T08:12:43.103Z,96608.00
2019-04-30T08:13:41.425Z,105728.00
2019-04-30T08:14:40.441Z,108992.00
2019-04-30T08:15:42.292Z,107648.00
2019-04-30T08:16:40.418Z,105344.00
2019-04-30T08:17:40.410Z,104288.00
2019-04-30T08:18:40.396Z,100832.00
2019-04-30T08:19:41.099Z,97664.00
2019-04-30T08:20:40.375Z,96704.00
2019-04-30T08:21:40.362Z,97728.00
2019-04-30T08:22:41.156Z,99616.00
2019-04-30T08:23:40.341Z,100320.00
2019-04-30T08:24:40.331Z,98624.00
2019-04-30T08:25:40.319Z,95168.00
2019-04-30T08:26:40.310Z,97408.00
2019-04-30T08:27:40.297Z,104576.00
2019-04-30T08:28:40.288Z,110784.00
2019-04-30T08:29:40.276Z,116032.00
2019-04-30T08:30:40.265Z,114208.00
2019-04-30T08:31:40.933Z,108512.00
2019-04-30T08:32:40.238Z,103328.00
2019-04-30T08:33:40.340Z,104000.00
2019-04-30T08:34:40.220Z,107008.00
2019-04-30T08:35:40.214Z,110528.00
2019-04-30T08:36:40.197Z,111552.00
2019-04-30T08:37:40.203Z,109792.00
2019-04-30T08:38:40.176Z,109280.00
2019-04-30T08:39:40.175Z,109408.00
2019-04-30T08:40:53.115Z,112864.00
2019-04-30T08:41:40.143Z,115456.00
2019-04-30T08:42:40.437Z,115488.00
2019-04-30T08:43:40.122Z,112864.00
2019-04-30T08:44:40.113Z,108864.00
2019-04-30T08:45:40.108Z,109376.00
2019-04-30T08:46:40.093Z,112800.00
2019-04-30T08:47:40.080Z,116032.00
2019-04-30T08:48:50.271Z,117024.00
2019-04-30T08:49:40.759Z,116736.00
2019-04-30T08:50:40.169Z,117312.00
2019-04-30T08:51:40.552Z,116352.00
2019-04-30T08:52:40.034Z,115328.00
2019-04-30T08:53:41.095Z,112288.00
2019-04-30T08:54:40.005Z,109376.00
2019-04-30T08:55:39.996Z,107744.00
2019-04-30T08:56:39.986Z,108864.00
2019-04-30T08:57:39.978Z,113344.00
2019-04-30T08:58:39.963Z,114560.00
2019-04-30T08:59:39.958Z,113728.00
2019-04-30T09:00:39.941Z,110240.00
2019-04-30T09:01:39.935Z,110432.00
2019-04-30T09:02:39.922Z,113568.00
2019-04-30T09:03:39.910Z,116352.00
2019-04-30T09:04:39.901Z,116928.00
2019-04-30T09:05:39.892Z,116192.00
2019-04-30T09:06:40.135Z,113408.00
2019-04-30T09:07:39.876Z,110080.00
2019-04-30T09:08:40.181Z,110336.00
2019-04-30T09:09:39.851Z,113312.00
2019-04-30T09:10:39.839Z,116896.00
2019-04-30T09:11:51.723Z,115520.00
2019-04-30T09:12:39.981Z,112992.00
2019-04-30T09:13:39.818Z,110688.00
2019-04-30T09:14:40.671Z,109024.00
2019-04-30T09:15:40.147Z,110688.00
2019-04-30T09:16:39.794Z,111840.00
2019-04-30T09:17:39.769Z,113824.00
2019-04-30T09:18:39.770Z,116384.00
2019-04-30T09:19:39.752Z,118976.00
2019-04-30T09:20:40.951Z,121792.00
2019-04-30T09:21:40.212Z,125664.00
2019-04-30T09:22:39.721Z,126336.00
2019-04-30T09:23:47.534Z,125408.00
2019-04-30T09:24:39.702Z,122240.00
2019-04-30T09:25:39.721Z,119168.00
2019-04-30T09:26:39.682Z,117216.00
2019-04-30T09:27:39.817Z,113184.00
2019-04-30T09:28:41.073Z,112128.00
2019-04-30T09:29:39.653Z,113536.00
2019-04-30T09:30:39.664Z,114880.00
2019-04-30T09:31:41.045Z,118912.00
2019-04-30T09:32:39.628Z,125280.00
2019-04-30T09:33:39.618Z,128288.00
2019-04-30T09:34:40.379Z,130400.00
2019-04-30T09:35:39.616Z,128192.00
2019-04-30T09:36:39.586Z,123264.00
2019-04-30T09:37:41.711Z,120128.00
2019-04-30T09:38:39.567Z,119072.00
2019-04-30T09:39:39.562Z,117312.00
2019-04-30T09:40:41.638Z,117536.00
2019-04-30T09:41:41.149Z,117728.00
2019-04-30T09:42:39.529Z,118464.00
2019-04-30T09:43:40.497Z,119840.00
2019-04-30T09:44:39.511Z,120736.00
2019-04-30T09:45:39.501Z,120864.00
2019-04-30T09:46:39.490Z,119040.00
2019-04-30T09:47:41.924Z,117120.00
2019-04-30T09:48:39.475Z,117632.00
2019-04-30T09:49:41.481Z,122048.00
2019-04-30T09:50:39.601Z,127680.00
2019-04-30T09:51:40.061Z,132064.00
2019-04-30T09:52:39.954Z,134336.00
2019-04-30T09:53:39.918Z,134656.00
2019-04-30T09:54:40.071Z,131552.00
2019-04-30T09:55:40.575Z,130656.00
2019-04-30T09:56:39.412Z,129440.00
2019-04-30T09:57:39.390Z,129664.00
2019-04-30T09:58:39.428Z,126560.00
2019-04-30T09:59:39.375Z,121248.00
2019-04-30T10:00:39.371Z,117728.00
2019-04-30T10:01:39.350Z,115072.00
2019-04-30T10:02:39.343Z,114720.00
2019-04-30T10:03:40.104Z,119104.00
2019-04-30T10:04:39.967Z,124512.00
2019-04-30T10:05:39.311Z,129728.00
2019-04-30T10:06:40.364Z,134304.00
2019-04-30T10:07:39.466Z,136384.00
2019-04-30T10:08:47.846Z,136384.00
2019-04-30T10:09:39.280Z,133184.00
2019-04-30T10:10:39.267Z,129664.00
2019-04-30T10:11:39.261Z,128480.00
2019-04-30T10:12:39.293Z,130048.00
2019-04-30T10:13:39.247Z,132032.00
2019-04-30T10:14:40.955Z,135456.00
2019-04-30T10:15:39.222Z,140320.00
2019-04-30T10:16:39.637Z,138496.00
2019-04-30T10:17:39.205Z,136192.00
2019-04-30T10:18:39.194Z,132288.00
2019-04-30T10:19:39.380Z,126304.00
2019-04-30T10:20:39.175Z,121312.00
2019-04-30T10:21:39.166Z,119616.00
2019-04-30T10:22:40.086Z,122144.00
2019-04-30T10:23:39.241Z,125376.00
2019-04-30T10:24:39.365Z,128544.00
2019-04-30T10:25:39.126Z,131840.00
2019-04-30T10:26:39.119Z,132896.00
2019-04-30T10:27:39.130Z,134176.00
2019-04-30T10:28:39.098Z,134336.00
2019-04-30T10:29:41.122Z,135264.00
2019-04-30T10:30:39.083Z,137152.00
2019-04-30T10:31:39.123Z,137344.00
2019-04-30T10:32:39.063Z,138368.00
2019-04-30T10:33:39.059Z,135520.00
2019-04-30T10:34:39.050Z,131488.00
2019-04-30T10:35:39.041Z,126592.00
2019-04-30T10:36:41.508Z,123584.00
2019-04-30T10:37:39.020Z,121952.00
2019-04-30T10:38:39.425Z,127264.00
2019-04-30T10:39:39.169Z,129120.00
2019-04-30T10:40:39.227Z,132160.00
2019-04-30T10:41:39.510Z,134464.00
2019-04-30T10:42:39.304Z,134816.00
2019-04-30T10:43:39.325Z,135008.00
2019-04-30T10:44:38.962Z,132960.00
2019-04-30T10:45:39.084Z,127648.00
2019-04-30T10:46:38.936Z,123456.00
2019-04-30T10:47:39.416Z,120992.00
2019-04-30T10:48:38.916Z,118816.00
2019-04-30T10:49:39.078Z,116160.00
2019-04-30T10:50:40.800Z,113280.00
2019-04-30T10:51:38.960Z,112512.00
2019-04-30T10:52:39.304Z,116192.00
2019-04-30T10:53:38.873Z,122912.00
2019-04-30T10:54:39.013Z,128160.00
2019-04-30T10:55:38.915Z,132736.00
2019-04-30T10:56:38.843Z,133728.00
2019-04-30T10:57:39.697Z,128128.00
2019-04-30T10:58:38.827Z,121632.00
2019-04-30T10:59:38.812Z,120800.00
2019-04-30T11:00:39.064Z,119648.00
2019-04-30T11:01:39.222Z,120064.00
2019-04-30T11:02:46.968Z,123168.00
2019-04-30T11:04:39.924Z,122272.00
2019-04-30T11:05:41.291Z,122272.00
2019-04-30T11:07:28.830Z,125472.00
2019-04-30T11:08:39.262Z,126176.00
2019-04-30T11:10:20.537Z,131328.00
2019-04-30T11:11:20.530Z,131328.00
2019-04-30T11:13:15.179Z,129472.00
2019-04-30T11:14:15.117Z,128384.00
2019-04-30T11:16:13.233Z,127648.00
2019-04-30T11:17:10.039Z,126112.00
2019-04-30T11:19:02.706Z,125408.00
2019-04-30T11:20:02.601Z,124736.00
2019-04-30T11:21:55.605Z,123808.00
2019-04-30T11:22:55.548Z,123200.00
2019-04-30T11:23:55.547Z,123520.00
2019-04-30T11:25:01.628Z,123392.00
2019-04-30T11:25:56.066Z,123872.00
2019-04-30T11:26:55.732Z,124512.00
2019-04-30T11:27:55.735Z,127136.00
2019-04-30T11:28:55.486Z,125664.00
2019-04-30T11:30:01.436Z,127424.00
2019-04-30T11:30:55.497Z,124800.00
2019-04-30T11:31:55.518Z,124192.00
2019-04-30T11:32:55.507Z,122816.00
2019-04-30T11:33:55.303Z,121088.00
2019-04-30T11:34:55.292Z,122496.00
2019-04-30T11:36:02.454Z,122240.00
2019-04-30T11:36:55.268Z,120288.00
2019-04-30T11:37:55.261Z,118560.00
2019-04-30T11:38:55.255Z,113984.00
2019-04-30T11:39:55.249Z,112192.00
2019-04-30T11:40:55.244Z,113184.00
2019-04-30T11:41:55.225Z,112960.00
2019-04-30T11:42:55.220Z,113952.00
2019-04-30T11:43:55.211Z,112320.00
2019-04-30T11:44:55.207Z,113152.00
2019-04-30T11:45:55.197Z,115040.00
2019-04-30T11:46:55.182Z,115616.00
2019-04-30T11:47:55.179Z,117664.00
2019-04-30T11:48:55.177Z,119360.00
2019-04-30T11:49:55.158Z,120288.00
2019-04-30T11:50:55.160Z,121824.00
2019-04-30T11:51:55.149Z,123104.00
2019-04-30T11:53:09.661Z,126080.00
2019-04-30T11:53:55.133Z,126272.00
2019-04-30T11:54:55.123Z,122080.00
2019-04-30T11:55:55.112Z,116224.00
2019-04-30T11:56:55.107Z,114432.00
2019-04-30T11:57:55.094Z,112096.00
2019-04-30T11:58:55.090Z,108544.00
2019-04-30T11:59:55.085Z,106048.00
2019-04-30T12:00:55.070Z,106944.00
2019-04-30T12:01:55.064Z,111136.00
2019-04-30T12:02:55.055Z,119296.00
2019-04-30T12:03:55.072Z,123776.00
2019-04-30T12:04:55.038Z,125024.00
2019-04-30T12:05:55.034Z,123584.00
2019-04-30T12:06:55.026Z,120672.00
2019-04-30T12:07:55.018Z,114560.00
2019-04-30T12:08:55.029Z,109376.00
2019-04-30T12:09:55.001Z,109248.00
2019-04-30T12:10:54.990Z,112000.00
2019-04-30T12:11:54.985Z,118528.00
2019-04-30T12:12:54.974Z,123488.00
2019-04-30T12:13:54.965Z,125504.00
2019-04-30T12:14:54.961Z,122816.00
2019-04-30T12:15:54.941Z,118720.00
2019-04-30T12:16:54.940Z,112864.00
2019-04-30T12:17:54.933Z,106816.00
2019-04-30T12:18:54.926Z,98240.00
2019-04-30T12:19:54.926Z,95136.00
2019-04-30T12:20:54.904Z,93088.00
2019-04-30T12:21:54.894Z,95776.00
2019-04-30T12:22:54.883Z,99264.00
2019-04-30T12:23:54.889Z,102912.00
2019-04-30T12:25:02.504Z,103872.00
2019-04-30T12:25:54.860Z,101760.00
2019-04-30T12:26:54.850Z,102688.00
2019-04-30T12:27:54.845Z,107552.00
2019-04-30T12:28:54.837Z,109600.00
2019-04-30T12:29:54.823Z,104576.00
2019-04-30T12:30:54.810Z,97024.00
2019-04-30T12:31:54.803Z,90176.00
2019-04-30T12:32:54.796Z,87840.00
2019-04-30T12:33:54.781Z,94176.00
2019-04-30T12:34:54.771Z,101408.00
2019-04-30T12:35:54.768Z,103520.00
2019-04-30T12:36:54.756Z,105184.00